sensor_id;sensor_type;location;lat;lon;timestamp;P1;durP1;ratioP1;P2;durP2;ratioP2
38182;SDS011;23991;52.430;10.586;2023-06-10T00:02:07;10.18;;;3.45;;
38182;SDS011;23991;52.430;10.586;2023-06-10T00:04:33;8.23;;;3.72;;
38182;SDS011;23991;52.430;10.586;2023-06-10T00:06:59;8.02;;;3.10;;
38182;SDS011;23991;52.430;10.586;2023-06-10T00:09:24;5.95;;;3.55;;
38182;SDS011;23991;52.430;10.586;2023-06-10T00:11:50;5.85;;;2.92;;
38182;SDS011;23991;52.430;10.586;2023-06-10T00:14:16;7.38;;;2.88;;
38182;SDS011;23991;52.430;10.586;2023-06-10T00:16:41;6.40;;;3.72;;
38182;SDS011;23991;52.430;10.586;2023-06-10T00:19:10;7.20;;;2.90;;
38182;SDS011;23991;52.430;10.586;2023-06-10T00:21:38;8.00;;;3.50;;
38182;SDS011;23991;52.430;10.586;2023-06-10T00:24:10;6.50;;;3.53;;
38182;SDS011;23991;52.430;10.586;2023-06-10T00:26:37;9.00;;;3.70;;
38182;SDS011;23991;52.430;10.586;2023-06-10T00:29:06;7.70;;;3.17;;
38182;SDS011;23991;52.430;10.586;2023-06-10T00:31:32;10.38;;;3.33;;
38182;SDS011;23991;52.430;10.586;2023-06-10T00:33:59;8.07;;;3.85;;
38182;SDS011;23991;52.430;10.586;2023-06-10T00:36:24;7.70;;;3.60;;
38182;SDS011;23991;52.430;10.586;2023-06-10T00:38:50;7.40;;;3.72;;
38182;SDS011;23991;52.430;10.586;2023-06-10T00:41:15;8.20;;;3.60;;
38182;SDS011;23991;52.430;10.586;2023-06-10T00:43:41;8.25;;;3.35;;
38182;SDS011;23991;52.430;10.586;2023-06-10T00:46:07;5.90;;;3.30;;
38182;SDS011;23991;52.430;10.586;2023-06-10T00:48:33;7.05;;;3.25;;
38182;SDS011;23991;52.430;10.586;2023-06-10T00:50:59;9.57;;;3.45;;
38182;SDS011;23991;52.430;10.586;2023-06-10T00:53:25;7.65;;;3.85;;
38182;SDS011;23991;52.430;10.586;2023-06-10T00:55:51;7.70;;;3.67;;
38182;SDS011;23991;52.430;10.586;2023-06-10T00:58:17;8.95;;;3.25;;
38182;SDS011;23991;52.430;10.586;2023-06-10T01:00:43;7.78;;;3.10;;
38182;SDS011;23991;52.430;10.586;2023-06-10T01:03:10;8.57;;;3.53;;
38182;SDS011;23991;52.430;10.586;2023-06-10T01:05:37;6.13;;;3.53;;
38182;SDS011;23991;52.430;10.586;2023-06-10T01:08:07;10.65;;;3.60;;
38182;SDS011;23991;52.430;10.586;2023-06-10T01:10:54;11.23;;;4.35;;
38182;SDS011;23991;52.430;10.586;2023-06-10T01:13:24;9.18;;;3.85;;
38182;SDS011;23991;52.430;10.586;2023-06-10T01:15:53;7.13;;;4.07;;
38182;SDS011;23991;52.430;10.586;2023-06-10T01:18:21;10.00;;;3.90;;
38182;SDS011;23991;52.430;10.586;2023-06-10T01:20:47;7.95;;;3.30;;
38182;SDS011;23991;52.430;10.586;2023-06-10T01:23:13;8.90;;;3.88;;
38182;SDS011;23991;52.430;10.586;2023-06-10T01:25:41;8.27;;;3.92;;
38182;SDS011;23991;52.430;10.586;2023-06-10T01:33:37;7.30;;;3.63;;
38182;SDS011;23991;52.430;10.586;2023-06-10T01:36:05;8.82;;;3.33;;
38182;SDS011;23991;52.430;10.586;2023-06-10T01:38:32;7.22;;;3.72;;
38182;SDS011;23991;52.430;10.586;2023-06-10T01:41:04;5.32;;;3.03;;
38182;SDS011;23991;52.430;10.586;2023-06-10T01:43:32;10.15;;;3.60;;
38182;SDS011;23991;52.430;10.586;2023-06-10T01:45:59;8.88;;;3.90;;
38182;SDS011;23991;52.430;10.586;2023-06-10T01:48:25;8.38;;;3.55;;
38182;SDS011;23991;52.430;10.586;2023-06-10T01:50:50;11.48;;;3.80;;
38182;SDS011;23991;52.430;10.586;2023-06-10T01:53:16;7.18;;;3.65;;
38182;SDS011;23991;52.430;10.586;2023-06-10T01:55:41;8.80;;;3.78;;
38182;SDS011;23991;52.430;10.586;2023-06-10T01:58:07;10.48;;;4.07;;
38182;SDS011;23991;52.430;10.586;2023-06-10T02:00:32;6.68;;;3.92;;
38182;SDS011;23991;52.430;10.586;2023-06-10T02:02:58;7.82;;;3.55;;
38182;SDS011;23991;52.430;10.586;2023-06-10T02:05:26;11.27;;;3.92;;
38182;SDS011;23991;52.430;10.586;2023-06-10T02:07:51;9.38;;;4.45;;
38182;SDS011;23991;52.430;10.586;2023-06-10T02:10:17;8.43;;;4.22;;
38182;SDS011;23991;52.430;10.586;2023-06-10T02:12:42;8.90;;;3.85;;
38182;SDS011;23991;52.430;10.586;2023-06-10T02:15:08;9.70;;;4.53;;
38182;SDS011;23991;52.430;10.586;2023-06-10T02:17:33;6.65;;;4.20;;
38182;SDS011;23991;52.430;10.586;2023-06-10T02:19:59;12.57;;;4.10;;
38182;SDS011;23991;52.430;10.586;2023-06-10T02:22:25;6.13;;;4.00;;
38182;SDS011;23991;52.430;10.586;2023-06-10T02:24:50;6.28;;;3.90;;
38182;SDS011;23991;52.430;10.586;2023-06-10T02:27:16;6.72;;;3.78;;
38182;SDS011;23991;52.430;10.586;2023-06-10T02:29:43;7.78;;;3.95;;
38182;SDS011;23991;52.430;10.586;2023-06-10T02:32:09;9.85;;;3.92;;
38182;SDS011;23991;52.430;10.586;2023-06-10T02:34:35;9.18;;;4.22;;
38182;SDS011;23991;52.430;10.586;2023-06-10T02:37:01;8.98;;;3.50;;
38182;SDS011;23991;52.430;10.586;2023-06-10T02:39:27;6.75;;;4.00;;
38182;SDS011;23991;52.430;10.586;2023-06-10T02:41:53;9.15;;;4.22;;
38182;SDS011;23991;52.430;10.586;2023-06-10T02:44:18;8.05;;;3.97;;
38182;SDS011;23991;52.430;10.586;2023-06-10T02:46:44;9.20;;;4.57;;
38182;SDS011;23991;52.430;10.586;2023-06-10T02:49:10;6.60;;;4.15;;
38182;SDS011;23991;52.430;10.586;2023-06-10T02:51:36;7.28;;;3.95;;
38182;SDS011;23991;52.430;10.586;2023-06-10T02:54:02;9.50;;;4.25;;
38182;SDS011;23991;52.430;10.586;2023-06-10T02:56:27;8.45;;;4.50;;
38182;SDS011;23991;52.430;10.586;2023-06-10T02:58:53;8.57;;;4.15;;
38182;SDS011;23991;52.430;10.586;2023-06-10T03:01:18;9.75;;;4.32;;
38182;SDS011;23991;52.430;10.586;2023-06-10T03:03:44;8.77;;;4.30;;
38182;SDS011;23991;52.430;10.586;2023-06-10T03:06:11;8.30;;;4.10;;
38182;SDS011;23991;52.430;10.586;2023-06-10T03:08:38;8.95;;;4.80;;
38182;SDS011;23991;52.430;10.586;2023-06-10T03:11:03;9.23;;;4.78;;
38182;SDS011;23991;52.430;10.586;2023-06-10T03:13:32;12.50;;;5.47;;
38182;SDS011;23991;52.430;10.586;2023-06-10T03:15:58;7.70;;;4.20;;
38182;SDS011;23991;52.430;10.586;2023-06-10T03:18:27;10.15;;;4.60;;
38182;SDS011;23991;52.430;10.586;2023-06-10T03:20:53;8.20;;;4.53;;
38182;SDS011;23991;52.430;10.586;2023-06-10T03:23:20;10.15;;;4.50;;
38182;SDS011;23991;52.430;10.586;2023-06-10T03:25:45;8.50;;;4.30;;
38182;SDS011;23991;52.430;10.586;2023-06-10T03:28:11;8.40;;;4.40;;
38182;SDS011;23991;52.430;10.586;2023-06-10T03:30:37;8.35;;;3.95;;
38182;SDS011;23991;52.430;10.586;2023-06-10T03:33:02;10.45;;;4.32;;
38182;SDS011;23991;52.430;10.586;2023-06-10T03:35:28;9.63;;;4.53;;
38182;SDS011;23991;52.430;10.586;2023-06-10T03:37:54;9.02;;;4.53;;
38182;SDS011;23991;52.430;10.586;2023-06-10T03:40:20;8.00;;;4.43;;
38182;SDS011;23991;52.430;10.586;2023-06-10T03:42:45;7.82;;;4.60;;
38182;SDS011;23991;52.430;10.586;2023-06-10T03:45:11;10.85;;;5.25;;
38182;SDS011;23991;52.430;10.586;2023-06-10T03:47:37;13.18;;;5.57;;
38182;SDS011;23991;52.430;10.586;2023-06-10T03:50:03;11.73;;;4.95;;
38182;SDS011;23991;52.430;10.586;2023-06-10T03:52:29;9.05;;;4.93;;
38182;SDS011;23991;52.430;10.586;2023-06-10T03:54:55;9.02;;;4.60;;
38182;SDS011;23991;52.430;10.586;2023-06-10T03:57:20;9.38;;;5.00;;
38182;SDS011;23991;52.430;10.586;2023-06-10T03:59:46;9.32;;;4.95;;
38182;SDS011;23991;52.430;10.586;2023-06-10T04:02:12;12.15;;;5.57;;
38182;SDS011;23991;52.430;10.586;2023-06-10T04:04:37;9.98;;;5.53;;
38182;SDS011;23991;52.430;10.586;2023-06-10T04:07:03;12.00;;;6.40;;
38182;SDS011;23991;52.430;10.586;2023-06-10T04:09:30;7.78;;;4.90;;
38182;SDS011;23991;52.430;10.586;2023-06-10T04:11:55;10.77;;;4.95;;
38182;SDS011;23991;52.430;10.586;2023-06-10T04:14:20;12.05;;;5.20;;
38182;SDS011;23991;52.430;10.586;2023-06-10T04:16:46;12.13;;;5.40;;
38182;SDS011;23991;52.430;10.586;2023-06-10T04:19:12;7.78;;;5.10;;
38182;SDS011;23991;52.430;10.586;2023-06-10T04:21:37;10.10;;;5.13;;
38182;SDS011;23991;52.430;10.586;2023-06-10T04:24:03;8.85;;;5.18;;
38182;SDS011;23991;52.430;10.586;2023-06-10T04:26:29;10.98;;;4.97;;
38182;SDS011;23991;52.430;10.586;2023-06-10T04:28:54;11.57;;;5.30;;
38182;SDS011;23991;52.430;10.586;2023-06-10T04:31:20;10.75;;;5.00;;
38182;SDS011;23991;52.430;10.586;2023-06-10T04:33:45;9.70;;;5.25;;
38182;SDS011;23991;52.430;10.586;2023-06-10T04:36:11;10.65;;;5.30;;
38182;SDS011;23991;52.430;10.586;2023-06-10T04:38:36;13.75;;;5.63;;
38182;SDS011;23991;52.430;10.586;2023-06-10T04:41:02;8.88;;;4.50;;
38182;SDS011;23991;52.430;10.586;2023-06-10T04:43:29;10.45;;;4.88;;
38182;SDS011;23991;52.430;10.586;2023-06-10T04:45:55;9.70;;;5.30;;
38182;SDS011;23991;52.430;10.586;2023-06-10T04:48:21;6.95;;;4.50;;
38182;SDS011;23991;52.430;10.586;2023-06-10T04:50:48;10.85;;;4.80;;
38182;SDS011;23991;52.430;10.586;2023-06-10T04:53:15;10.30;;;5.50;;
38182;SDS011;23991;52.430;10.586;2023-06-10T04:55:41;8.00;;;4.65;;
38182;SDS011;23991;52.430;10.586;2023-06-10T04:58:07;7.93;;;4.10;;
38182;SDS011;23991;52.430;10.586;2023-06-10T05:00:32;8.93;;;4.65;;
38182;SDS011;23991;52.430;10.586;2023-06-10T05:02:58;9.65;;;4.78;;
38182;SDS011;23991;52.430;10.586;2023-06-10T05:05:23;9.52;;;5.25;;
38182;SDS011;23991;52.430;10.586;2023-06-10T05:07:49;10.23;;;4.50;;
38182;SDS011;23991;52.430;10.586;2023-06-10T05:10:14;8.25;;;4.35;;
38182;SDS011;23991;52.430;10.586;2023-06-10T05:12:40;10.43;;;3.88;;
38182;SDS011;23991;52.430;10.586;2023-06-10T05:15:06;7.45;;;4.03;;
38182;SDS011;23991;52.430;10.586;2023-06-10T05:17:33;10.45;;;4.22;;
38182;SDS011;23991;52.430;10.586;2023-06-10T05:20:00;11.38;;;4.30;;
38182;SDS011;23991;52.430;10.586;2023-06-10T05:22:26;9.27;;;5.00;;
38182;SDS011;23991;52.430;10.586;2023-06-10T05:24:52;9.98;;;4.47;;
38182;SDS011;23991;52.430;10.586;2023-06-10T05:27:18;7.88;;;4.38;;
38182;SDS011;23991;52.430;10.586;2023-06-10T05:29:44;8.40;;;4.68;;
38182;SDS011;23991;52.430;10.586;2023-06-10T05:32:10;8.57;;;4.50;;
38182;SDS011;23991;52.430;10.586;2023-06-10T05:34:36;7.85;;;4.57;;
38182;SDS011;23991;52.430;10.586;2023-06-10T05:37:02;8.23;;;4.82;;
38182;SDS011;23991;52.430;10.586;2023-06-10T05:39:28;11.93;;;4.35;;
38182;SDS011;23991;52.430;10.586;2023-06-10T05:41:53;10.68;;;4.43;;
38182;SDS011;23991;52.430;10.586;2023-06-10T05:44:19;11.30;;;4.70;;
38182;SDS011;23991;52.430;10.586;2023-06-10T05:46:45;8.52;;;3.75;;
38182;SDS011;23991;52.430;10.586;2023-06-10T05:49:10;10.40;;;4.68;;
38182;SDS011;23991;52.430;10.586;2023-06-10T05:51:36;9.50;;;4.10;;
38182;SDS011;23991;52.430;10.586;2023-06-10T05:54:02;9.93;;;4.15;;
38182;SDS011;23991;52.430;10.586;2023-06-10T05:56:28;9.60;;;4.15;;
38182;SDS011;23991;52.430;10.586;2023-06-10T05:58:53;8.93;;;4.90;;
38182;SDS011;23991;52.430;10.586;2023-06-10T06:01:22;7.90;;;4.00;;
38182;SDS011;23991;52.430;10.586;2023-06-10T06:03:48;10.75;;;4.13;;
38182;SDS011;23991;52.430;10.586;2023-06-10T06:06:13;13.07;;;4.32;;
38182;SDS011;23991;52.430;10.586;2023-06-10T06:08:39;11.95;;;4.32;;
38182;SDS011;23991;52.430;10.586;2023-06-10T06:11:04;14.32;;;3.95;;
38182;SDS011;23991;52.430;10.586;2023-06-10T06:13:30;13.70;;;4.30;;
38182;SDS011;23991;52.430;10.586;2023-06-10T06:15:58;9.63;;;4.53;;
38182;SDS011;23991;52.430;10.586;2023-06-10T06:18:24;8.73;;;3.97;;
38182;SDS011;23991;52.430;10.586;2023-06-10T06:20:50;11.68;;;5.10;;
38182;SDS011;23991;52.430;10.586;2023-06-10T06:23:15;7.03;;;4.18;;
38182;SDS011;23991;52.430;10.586;2023-06-10T06:25:41;12.55;;;4.32;;
38182;SDS011;23991;52.430;10.586;2023-06-10T06:28:07;9.25;;;3.92;;
38182;SDS011;23991;52.430;10.586;2023-06-10T06:30:34;7.15;;;4.10;;
38182;SDS011;23991;52.430;10.586;2023-06-10T06:33:00;11.05;;;4.43;;
38182;SDS011;23991;52.430;10.586;2023-06-10T06:35:25;8.20;;;4.30;;
38182;SDS011;23991;52.430;10.586;2023-06-10T06:37:51;8.23;;;4.03;;
38182;SDS011;23991;52.430;10.586;2023-06-10T06:40:16;9.30;;;4.40;;
38182;SDS011;23991;52.430;10.586;2023-06-10T06:42:42;8.10;;;4.18;;
38182;SDS011;23991;52.430;10.586;2023-06-10T06:45:07;7.90;;;3.88;;
38182;SDS011;23991;52.430;10.586;2023-06-10T06:47:33;7.13;;;3.97;;
38182;SDS011;23991;52.430;10.586;2023-06-10T06:49:59;10.55;;;4.05;;
38182;SDS011;23991;52.430;10.586;2023-06-10T06:52:24;9.25;;;4.35;;
38182;SDS011;23991;52.430;10.586;2023-06-10T06:54:50;7.97;;;4.15;;
38182;SDS011;23991;52.430;10.586;2023-06-10T06:57:16;8.25;;;3.78;;
38182;SDS011;23991;52.430;10.586;2023-06-10T06:59:41;9.80;;;3.85;;
38182;SDS011;23991;52.430;10.586;2023-06-10T07:02:07;10.07;;;4.47;;
38182;SDS011;23991;52.430;10.586;2023-06-10T07:04:32;9.30;;;4.35;;
38182;SDS011;23991;52.430;10.586;2023-06-10T07:06:58;8.40;;;3.65;;
38182;SDS011;23991;52.430;10.586;2023-06-10T07:09:23;8.45;;;4.30;;
38182;SDS011;23991;52.430;10.586;2023-06-10T07:11:49;6.70;;;3.63;;
38182;SDS011;23991;52.430;10.586;2023-06-10T07:14:14;7.68;;;3.75;;
38182;SDS011;23991;52.430;10.586;2023-06-10T07:16:40;9.45;;;4.20;;
38182;SDS011;23991;52.430;10.586;2023-06-10T07:19:05;9.90;;;4.40;;
38182;SDS011;23991;52.430;10.586;2023-06-10T07:21:31;10.75;;;4.47;;
38182;SDS011;23991;52.430;10.586;2023-06-10T07:23:57;10.02;;;4.45;;
38182;SDS011;23991;52.430;10.586;2023-06-10T07:26:23;7.97;;;3.95;;
38182;SDS011;23991;52.430;10.586;2023-06-10T07:28:49;10.13;;;3.72;;
38182;SDS011;23991;52.430;10.586;2023-06-10T07:31:14;9.07;;;3.63;;
38182;SDS011;23991;52.430;10.586;2023-06-10T07:33:40;10.25;;;3.78;;
38182;SDS011;23991;52.430;10.586;2023-06-10T07:36:06;6.63;;;3.88;;
38182;SDS011;23991;52.430;10.586;2023-06-10T07:38:32;8.68;;;4.50;;
38182;SDS011;23991;52.430;10.586;2023-06-10T07:40:57;9.57;;;4.60;;
38182;SDS011;23991;52.430;10.586;2023-06-10T07:43:23;11.43;;;4.68;;
38182;SDS011;23991;52.430;10.586;2023-06-10T07:45:49;13.23;;;4.50;;
38182;SDS011;23991;52.430;10.586;2023-06-10T07:48:15;7.28;;;3.83;;
38182;SDS011;23991;52.430;10.586;2023-06-10T07:50:41;7.43;;;3.80;;
38182;SDS011;23991;52.430;10.586;2023-06-10T07:53:06;6.43;;;3.78;;
38182;SDS011;23991;52.430;10.586;2023-06-10T07:55:32;8.52;;;4.00;;
38182;SDS011;23991;52.430;10.586;2023-06-10T07:57:57;11.32;;;4.22;;
38182;SDS011;23991;52.430;10.586;2023-06-10T08:00:23;8.13;;;4.07;;
38182;SDS011;23991;52.430;10.586;2023-06-10T08:02:49;9.25;;;3.70;;
38182;SDS011;23991;52.430;10.586;2023-06-10T08:05:15;10.13;;;3.92;;
38182;SDS011;23991;52.430;10.586;2023-06-10T08:07:41;14.02;;;4.45;;
38182;SDS011;23991;52.430;10.586;2023-06-10T08:10:07;7.40;;;3.95;;
38182;SDS011;23991;52.430;10.586;2023-06-10T08:12:33;9.80;;;4.25;;
38182;SDS011;23991;52.430;10.586;2023-06-10T08:14:59;7.10;;;4.10;;
38182;SDS011;23991;52.430;10.586;2023-06-10T08:17:25;8.70;;;3.83;;
38182;SDS011;23991;52.430;10.586;2023-06-10T08:19:51;11.10;;;4.43;;
38182;SDS011;23991;52.430;10.586;2023-06-10T08:22:16;7.90;;;4.05;;
38182;SDS011;23991;52.430;10.586;2023-06-10T08:24:42;10.63;;;4.97;;
38182;SDS011;23991;52.430;10.586;2023-06-10T08:27:08;10.40;;;4.53;;
38182;SDS011;23991;52.430;10.586;2023-06-10T08:29:33;8.55;;;4.35;;
38182;SDS011;23991;52.430;10.586;2023-06-10T08:31:59;9.32;;;4.10;;
38182;SDS011;23991;52.430;10.586;2023-06-10T08:34:25;11.48;;;4.63;;
38182;SDS011;23991;52.430;10.586;2023-06-10T08:36:50;8.05;;;3.80;;
38182;SDS011;23991;52.430;10.586;2023-06-10T08:39:18;9.68;;;4.20;;
38182;SDS011;23991;52.430;10.586;2023-06-10T08:41:46;6.75;;;3.92;;
38182;SDS011;23991;52.430;10.586;2023-06-10T08:44:40;7.32;;;4.10;;
38182;SDS011;23991;52.430;10.586;2023-06-10T08:47:11;6.90;;;3.88;;
38182;SDS011;23991;52.430;10.586;2023-06-10T08:49:45;7.45;;;4.30;;
38182;SDS011;23991;52.430;10.586;2023-06-10T08:52:16;9.15;;;4.45;;
38182;SDS011;23991;52.430;10.586;2023-06-10T08:54:45;8.38;;;4.25;;
38182;SDS011;23991;52.430;10.586;2023-06-10T08:57:12;9.93;;;4.50;;
38182;SDS011;23991;52.430;10.586;2023-06-10T08:59:38;7.55;;;4.13;;
38182;SDS011;23991;52.430;10.586;2023-06-10T09:02:04;7.57;;;3.83;;
38182;SDS011;23991;52.430;10.586;2023-06-10T09:04:32;7.38;;;4.72;;
38182;SDS011;23991;52.430;10.586;2023-06-10T09:06:58;8.48;;;4.30;;
38182;SDS011;23991;52.430;10.586;2023-06-10T09:09:25;8.77;;;3.75;;
38182;SDS011;23991;52.430;10.586;2023-06-10T09:11:53;6.88;;;4.25;;
38182;SDS011;23991;52.430;10.586;2023-06-10T09:14:18;10.93;;;4.15;;
38182;SDS011;23991;52.430;10.586;2023-06-10T09:16:44;6.85;;;3.90;;
38182;SDS011;23991;52.430;10.586;2023-06-10T09:19:11;7.30;;;5.03;;
38182;SDS011;23991;52.430;10.586;2023-06-10T09:21:37;7.93;;;4.18;;
38182;SDS011;23991;52.430;10.586;2023-06-10T09:24:03;8.65;;;4.85;;
38182;SDS011;23991;52.430;10.586;2023-06-10T09:26:30;8.32;;;4.53;;
38182;SDS011;23991;52.430;10.586;2023-06-10T09:29:03;9.60;;;4.63;;
38182;SDS011;23991;52.430;10.586;2023-06-10T09:31:29;9.82;;;4.80;;
38182;SDS011;23991;52.430;10.586;2023-06-10T09:34:04;8.75;;;3.83;;
38182;SDS011;23991;52.430;10.586;2023-06-10T09:36:34;6.88;;;4.57;;
38182;SDS011;23991;52.430;10.586;2023-06-10T09:39:01;8.07;;;4.72;;
38182;SDS011;23991;52.430;10.586;2023-06-10T09:41:39;8.25;;;4.35;;
38182;SDS011;23991;52.430;10.586;2023-06-10T09:44:18;8.90;;;4.80;;
38182;SDS011;23991;52.430;10.586;2023-06-10T09:46:46;10.55;;;4.75;;
38182;SDS011;23991;52.430;10.586;2023-06-10T09:49:12;9.82;;;4.32;;
38182;SDS011;23991;52.430;10.586;2023-06-10T09:51:48;12.90;;;4.35;;
38182;SDS011;23991;52.430;10.586;2023-06-10T09:54:17;6.07;;;3.70;;
38182;SDS011;23991;52.430;10.586;2023-06-10T09:56:44;7.45;;;4.18;;
38182;SDS011;23991;52.430;10.586;2023-06-10T09:59:15;6.57;;;3.90;;
38182;SDS011;23991;52.430;10.586;2023-06-10T10:01:41;10.43;;;4.00;;
38182;SDS011;23991;52.430;10.586;2023-06-10T10:04:06;7.85;;;4.88;;
38182;SDS011;23991;52.430;10.586;2023-06-10T10:06:32;9.38;;;4.32;;
38182;SDS011;23991;52.430;10.586;2023-06-10T10:08:59;9.10;;;4.68;;
38182;SDS011;23991;52.430;10.586;2023-06-10T10:11:24;7.57;;;4.38;;
38182;SDS011;23991;52.430;10.586;2023-06-10T10:13:52;10.60;;;4.60;;
38182;SDS011;23991;52.430;10.586;2023-06-10T10:16:23;10.20;;;5.15;;
38182;SDS011;23991;52.430;10.586;2023-06-10T10:18:55;6.55;;;4.10;;
38182;SDS011;23991;52.430;10.586;2023-06-10T10:21:24;7.13;;;4.32;;
38182;SDS011;23991;52.430;10.586;2023-06-10T10:24:02;5.30;;;4.00;;
38182;SDS011;23991;52.430;10.586;2023-06-10T10:26:38;8.10;;;4.30;;
38182;SDS011;23991;52.430;10.586;2023-06-10T10:29:11;8.85;;;4.13;;
38182;SDS011;23991;52.430;10.586;2023-06-10T10:31:50;8.65;;;4.50;;
38182;SDS011;23991;52.430;10.586;2023-06-10T10:34:19;6.85;;;4.30;;
38182;SDS011;23991;52.430;10.586;2023-06-10T10:36:50;7.90;;;4.30;;
38182;SDS011;23991;52.430;10.586;2023-06-10T10:39:16;12.77;;;5.00;;
38182;SDS011;23991;52.430;10.586;2023-06-10T10:41:42;5.75;;;4.40;;
38182;SDS011;23991;52.430;10.586;2023-06-10T10:44:09;8.88;;;4.70;;
38182;SDS011;23991;52.430;10.586;2023-06-10T10:46:42;12.05;;;4.97;;
38182;SDS011;23991;52.430;10.586;2023-06-10T10:49:17;6.75;;;4.70;;
38182;SDS011;23991;52.430;10.586;2023-06-10T10:52:04;8.60;;;4.43;;
38182;SDS011;23991;52.430;10.586;2023-06-10T10:54:33;7.97;;;4.35;;
38182;SDS011;23991;52.430;10.586;2023-06-10T11:02:32;11.52;;;4.88;;
38182;SDS011;23991;52.430;10.586;2023-06-10T11:05:01;8.80;;;4.10;;
38182;SDS011;23991;52.430;10.586;2023-06-10T11:07:29;10.50;;;4.72;;
38182;SDS011;23991;52.430;10.586;2023-06-10T11:15:09;5.75;;;4.22;;
38182;SDS011;23991;52.430;10.586;2023-06-10T11:17:35;7.40;;;4.20;;
38182;SDS011;23991;52.430;10.586;2023-06-10T11:20:00;7.38;;;4.28;;
38182;SDS011;23991;52.430;10.586;2023-06-10T11:22:26;6.88;;;3.78;;
38182;SDS011;23991;52.430;10.586;2023-06-10T11:24:51;8.05;;;4.72;;
38182;SDS011;23991;52.430;10.586;2023-06-10T11:27:20;8.05;;;4.50;;
38182;SDS011;23991;52.430;10.586;2023-06-10T11:29:57;8.07;;;4.60;;
38182;SDS011;23991;52.430;10.586;2023-06-10T11:32:25;9.80;;;4.88;;
38182;SDS011;23991;52.430;10.586;2023-06-10T11:34:55;11.65;;;4.93;;
38182;SDS011;23991;52.430;10.586;2023-06-10T11:37:21;11.13;;;4.43;;
38182;SDS011;23991;52.430;10.586;2023-06-10T11:39:47;7.38;;;4.35;;
38182;SDS011;23991;52.430;10.586;2023-06-10T11:42:16;7.78;;;4.68;;
38182;SDS011;23991;52.430;10.586;2023-06-10T11:44:47;6.72;;;4.78;;
38182;SDS011;23991;52.430;10.586;2023-06-10T11:47:17;8.65;;;4.72;;
38182;SDS011;23991;52.430;10.586;2023-06-10T11:49:43;11.15;;;4.70;;
38182;SDS011;23991;52.430;10.586;2023-06-10T11:52:09;8.02;;;5.38;;
38182;SDS011;23991;52.430;10.586;2023-06-10T11:54:35;6.93;;;4.85;;
38182;SDS011;23991;52.430;10.586;2023-06-10T11:57:01;9.82;;;5.45;;
38182;SDS011;23991;52.430;10.586;2023-06-10T11:59:33;8.82;;;4.80;;
38182;SDS011;23991;52.430;10.586;2023-06-10T12:02:04;8.43;;;5.00;;
38182;SDS011;23991;52.430;10.586;2023-06-10T12:04:30;9.60;;;4.88;;
38182;SDS011;23991;52.430;10.586;2023-06-10T12:06:55;7.70;;;5.20;;
38182;SDS011;23991;52.430;10.586;2023-06-10T12:09:30;7.22;;;4.93;;
38182;SDS011;23991;52.430;10.586;2023-06-10T12:12:02;11.98;;;5.40;;
38182;SDS011;23991;52.430;10.586;2023-06-10T12:19:57;7.80;;;4.88;;
38182;SDS011;23991;52.430;10.586;2023-06-10T12:22:24;7.40;;;5.50;;
38182;SDS011;23991;52.430;10.586;2023-06-10T12:24:57;9.60;;;4.78;;
38182;SDS011;23991;52.430;10.586;2023-06-10T12:27:31;8.80;;;5.50;;
38182;SDS011;23991;52.430;10.586;2023-06-10T12:29:58;5.80;;;4.30;;
38182;SDS011;23991;52.430;10.586;2023-06-10T12:35:11;7.28;;;5.22;;
38182;SDS011;23991;52.430;10.586;2023-06-10T12:37:38;8.77;;;5.13;;
38182;SDS011;23991;52.430;10.586;2023-06-10T12:40:07;7.30;;;4.82;;
38182;SDS011;23991;52.430;10.586;2023-06-10T12:42:35;8.00;;;5.28;;
38182;SDS011;23991;52.430;10.586;2023-06-10T12:45:07;7.47;;;4.80;;
38182;SDS011;23991;52.430;10.586;2023-06-10T12:47:43;7.93;;;5.25;;
38182;SDS011;23991;52.430;10.586;2023-06-10T12:50:09;7.95;;;4.75;;
38182;SDS011;23991;52.430;10.586;2023-06-10T12:52:37;5.90;;;5.13;;
38182;SDS011;23991;52.430;10.586;2023-06-10T12:55:02;7.07;;;5.30;;
38182;SDS011;23991;52.430;10.586;2023-06-10T12:57:31;7.80;;;5.15;;
38182;SDS011;23991;52.430;10.586;2023-06-10T12:59:56;9.75;;;4.93;;
38182;SDS011;23991;52.430;10.586;2023-06-10T13:02:28;7.32;;;5.20;;
38182;SDS011;23991;52.430;10.586;2023-06-10T13:04:54;7.18;;;4.85;;
38182;SDS011;23991;52.430;10.586;2023-06-10T13:07:22;8.57;;;5.15;;
38182;SDS011;23991;52.430;10.586;2023-06-10T13:09:48;8.32;;;5.00;;
38182;SDS011;23991;52.430;10.586;2023-06-10T13:12:16;9.38;;;5.13;;
38182;SDS011;23991;52.430;10.586;2023-06-10T13:14:46;9.30;;;5.40;;
38182;SDS011;23991;52.430;10.586;2023-06-10T13:17:11;7.15;;;4.93;;
38182;SDS011;23991;52.430;10.586;2023-06-10T13:19:40;5.90;;;4.55;;
38182;SDS011;23991;52.430;10.586;2023-06-10T13:22:05;6.40;;;4.97;;
38182;SDS011;23991;52.430;10.586;2023-06-10T13:24:31;6.15;;;4.93;;
38182;SDS011;23991;52.430;10.586;2023-06-10T13:26:56;6.55;;;4.85;;
38182;SDS011;23991;52.430;10.586;2023-06-10T13:29:22;10.60;;;4.63;;
38182;SDS011;23991;52.430;10.586;2023-06-10T13:31:48;5.78;;;4.82;;
38182;SDS011;23991;52.430;10.586;2023-06-10T13:34:16;7.38;;;4.93;;
38182;SDS011;23991;52.430;10.586;2023-06-10T13:36:42;8.23;;;5.25;;
38182;SDS011;23991;52.430;10.586;2023-06-10T13:39:07;6.82;;;4.68;;
38182;SDS011;23991;52.430;10.586;2023-06-10T13:41:33;8.63;;;5.30;;
38182;SDS011;23991;52.430;10.586;2023-06-10T13:43:58;8.95;;;4.70;;
38182;SDS011;23991;52.430;10.586;2023-06-10T13:46:24;7.78;;;5.32;;
38182;SDS011;23991;52.430;10.586;2023-06-10T13:48:51;5.95;;;4.53;;
38182;SDS011;23991;52.430;10.586;2023-06-10T13:51:16;7.95;;;5.25;;
38182;SDS011;23991;52.430;10.586;2023-06-10T13:53:42;9.38;;;5.45;;
38182;SDS011;23991;52.430;10.586;2023-06-10T13:56:08;6.15;;;5.30;;
38182;SDS011;23991;52.430;10.586;2023-06-10T13:58:33;7.03;;;5.25;;
38182;SDS011;23991;52.430;10.586;2023-06-10T14:01:03;7.88;;;5.38;;
38182;SDS011;23991;52.430;10.586;2023-06-10T14:03:32;16.10;;;5.97;;
38182;SDS011;23991;52.430;10.586;2023-06-10T14:05:58;5.90;;;5.03;;
38182;SDS011;23991;52.430;10.586;2023-06-10T14:08:24;7.28;;;5.35;;
38182;SDS011;23991;52.430;10.586;2023-06-10T14:10:49;8.40;;;5.03;;
38182;SDS011;23991;52.430;10.586;2023-06-10T14:13:18;7.57;;;5.07;;
38182;SDS011;23991;52.430;10.586;2023-06-10T14:15:43;7.25;;;5.43;;
38182;SDS011;23991;52.430;10.586;2023-06-10T14:18:09;6.57;;;4.82;;
38182;SDS011;23991;52.430;10.586;2023-06-10T14:20:35;6.75;;;4.93;;
38182;SDS011;23991;52.430;10.586;2023-06-10T14:23:03;7.60;;;5.22;;
38182;SDS011;23991;52.430;10.586;2023-06-10T14:25:31;11.23;;;5.20;;
38182;SDS011;23991;52.430;10.586;2023-06-10T14:27:57;7.47;;;4.88;;
38182;SDS011;23991;52.430;10.586;2023-06-10T14:30:23;7.88;;;5.20;;
38182;SDS011;23991;52.430;10.586;2023-06-10T14:32:51;6.35;;;4.90;;
38182;SDS011;23991;52.430;10.586;2023-06-10T14:35:17;5.38;;;4.60;;
38182;SDS011;23991;52.430;10.586;2023-06-10T14:37:42;8.50;;;5.15;;
38182;SDS011;23991;52.430;10.586;2023-06-10T14:40:08;7.10;;;5.35;;
38182;SDS011;23991;52.430;10.586;2023-06-10T14:42:43;8.65;;;5.00;;
38182;SDS011;23991;52.430;10.586;2023-06-10T14:45:08;6.18;;;5.30;;
38182;SDS011;23991;52.430;10.586;2023-06-10T14:47:37;7.13;;;4.90;;
38182;SDS011;23991;52.430;10.586;2023-06-10T14:50:05;9.10;;;5.10;;
38182;SDS011;23991;52.430;10.586;2023-06-10T14:52:33;6.93;;;5.18;;
38182;SDS011;23991;52.430;10.586;2023-06-10T14:55:02;5.90;;;5.03;;